Time;durP1;ratioP1;P1;durP2;ratioP2;P2;SDS_P1;SDS_P2;PMS_P1;PMS_P2;Temp;Humidity;BMP_temperature;BMP_pressure;BME280_temperature;BME280_humidity;BME280_pressure;Samples;Min_cycle;Max_cycle;Signal;HPM_P1;HPM_P2
2021/10/23 00:01:35;;;;;;;13.00;1.70;;;;;;;;;;4954428;28;20039;-58
2021/10/23 00:04:01;;;;;;;20.25;2.00;;;;;;;;;;4956425;28;20084;-62
2021/10/23 00:06:27;;;;;;;12.27;1.70;;;;;;;;;;4955498;28;20529;-57
2021/10/23 00:08:53;;;;;;;7.35;1.70;;;;;;;;;;4956068;28;20047;-56
2021/10/23 00:11:19;;;;;;;18.30;2.20;;;;;;;;;;4956139;28;20143;-57
2021/10/23 00:13:45;;;;;;;17.25;2.05;;;;;;;;;;4955956;28;20055;-59
2021/10/23 00:16:11;;;;;;;7.57;1.58;;;;;;;;;;4957238;28;20039;-58
2021/10/23 00:18:36;;;;;;;8.23;1.75;;;;;;;;;;4957678;28;20502;-59
2021/10/23 00:21:03;;;;;;;6.47;1.27;;;;;;;;;;4958740;28;20043;-58
2021/10/23 00:23:29;;;;;;;8.57;1.70;;;;;;;;;;4953965;28;20066;-58
2021/10/23 00:25:55;;;;;;;8.25;1.70;;;;;;;;;;4960702;28;20069;-60
2021/10/23 00:28:20;;;;;;;14.98;1.48;;;;;;;;;;4959776;28;20587;-57
2021/10/23 00:30:46;;;;;;;7.93;1.52;;;;;;;;;;4958246;28;20047;-57
2021/10/23 00:33:12;;;;;;;11.82;1.73;;;;;;;;;;4957507;28;20045;-60
2021/10/23 00:35:38;;;;;;;9.07;1.42;;;;;;;;;;4956257;28;21815;-59
2021/10/23 00:38:04;;;;;;;7.63;1.60;;;;;;;;;;4955004;28;20038;-57
2021/10/23 00:40:30;;;;;;;12.18;1.40;;;;;;;;;;4955709;28;20047;-59
2021/10/23 00:42:56;;;;;;;11.52;1.65;;;;;;;;;;4956503;28;20110;-58
2021/10/23 00:45:22;;;;;;;8.98;1.40;;;;;;;;;;4954183;28;20086;-54
2021/10/23 00:47:48;;;;;;;18.05;1.80;;;;;;;;;;4953622;28;20090;-54
2021/10/23 00:50:14;;;;;;;14.23;1.80;;;;;;;;;;4969866;28;20097;-57
2021/10/23 00:52:41;;;;;;;8.93;1.50;;;;;;;;;;4955411;28;20078;-56
2021/10/23 00:55:07;;;;;;;6.25;1.70;;;;;;;;;;4955056;28;20058;-59
2021/10/23 00:57:33;;;;;;;13.90;1.67;;;;;;;;;;4969397;28;20062;-59
2021/10/23 00:59:59;;;;;;;6.95;1.40;;;;;;;;;;4954380;28;20042;-54
2021/10/23 01:02:25;;;;;;;12.40;1.63;;;;;;;;;;4956045;28;20520;-59
2021/10/23 01:04:51;;;;;;;11.13;1.80;;;;;;;;;;4955857;28;20579;-58
2021/10/23 01:07:17;;;;;;;11.77;1.40;;;;;;;;;;4953655;28;20055;-59
2021/10/23 01:09:44;;;;;;;11.30;1.85;;;;;;;;;;4955836;28;20035;-62
2021/10/23 01:12:11;;;;;;;5.85;1.27;;;;;;;;;;4954359;28;20130;-58
2021/10/23 01:14:37;;;;;;;10.43;1.73;;;;;;;;;;4945738;28;20067;-60
2021/10/23 01:17:03;;;;;;;6.45;1.25;;;;;;;;;;4938894;28;20043;-58
2021/10/23 01:19:29;;;;;;;17.85;2.67;;;;;;;;;;4945533;28;20075;-59
2021/10/23 01:21:55;;;;;;;12.02;1.67;;;;;;;;;;4960426;28;20047;-57
2021/10/23 01:24:23;;;;;;;11.27;1.48;;;;;;;;;;4944366;28;20035;-58
2021/10/23 01:26:49;;;;;;;8.57;1.50;;;;;;;;;;4963170;28;20368;-61
2021/10/23 01:29:16;;;;;;;5.15;1.55;;;;;;;;;;4960090;28;20039;-60
2021/10/23 01:31:43;;;;;;;14.02;2.28;;;;;;;;;;4955111;28;20051;-59
2021/10/23 01:34:13;;;;;;;7.75;1.40;;;;;;;;;;4946505;28;20043;-59
2021/10/23 01:36:42;;;;;;;12.77;3.05;;;;;;;;;;4942646;28;20094;-58
2021/10/23 01:39:08;;;;;;;13.43;1.60;;;;;;;;;;4940826;28;20054;-59
2021/10/23 01:41:34;;;;;;;13.70;1.83;;;;;;;;;;4941492;28;20488;-55
2021/10/23 01:44:00;;;;;;;6.15;1.73;;;;;;;;;;4940887;28;20052;-58
2021/10/23 01:46:26;;;;;;;19.67;1.95;;;;;;;;;;4939196;28;20058;-57
2021/10/23 01:48:52;;;;;;;7.28;1.55;;;;;;;;;;4937750;28;20032;-58
2021/10/23 01:51:17;;;;;;;7.18;1.45;;;;;;;;;;4937822;28;20052;-58
2021/10/23 01:53:43;;;;;;;9.52;1.60;;;;;;;;;;4938734;28;20086;-59
2021/10/23 01:56:09;;;;;;;9.05;1.63;;;;;;;;;;4937892;28;20546;-56
2021/10/23 01:58:35;;;;;;;11.30;1.40;;;;;;;;;;4936167;28;20047;-56
2021/10/23 02:01:01;;;;;;;17.10;1.80;;;;;;;;;;4940669;28;20431;-57
2021/10/23 02:03:27;;;;;;;8.07;1.63;;;;;;;;;;4936594;28;20112;-59
2021/10/23 02:05:53;;;;;;;5.28;1.10;;;;;;;;;;4936896;28;20133;-58
2021/10/23 02:08:18;;;;;;;9.50;1.42;;;;;;;;;;4937014;28;20036;-56
2021/10/23 02:10:44;;;;;;;20.38;1.50;;;;;;;;;;4936384;28;20053;-55
2021/10/23 02:13:10;;;;;;;12.88;2.17;;;;;;;;;;4936846;28;20039;-57
2021/10/23 02:15:36;;;;;;;8.45;1.00;;;;;;;;;;4953172;28;20042;-56
2021/10/23 02:18:02;;;;;;;4.95;1.10;;;;;;;;;;4953653;28;20039;-58
2021/10/23 02:20:33;;;;;;;10.70;1.30;;;;;;;;;;4952105;28;20050;-58
2021/10/23 02:22:59;;;;;;;9.70;1.27;;;;;;;;;;4955717;28;21106;-57
2021/10/23 02:25:25;;;;;;;13.70;1.75;;;;;;;;;;4957127;28;20082;-58
2021/10/23 02:27:51;;;;;;;7.22;1.27;;;;;;;;;;4960587;28;20043;-58
2021/10/23 02:30:17;;;;;;;5.43;1.10;;;;;;;;;;4960478;28;20031;-58
2021/10/23 02:32:42;;;;;;;8.18;1.50;;;;;;;;;;4958225;28;20034;-56
2021/10/23 02:35:09;;;;;;;7.82;1.30;;;;;;;;;;4959727;28;20104;-59
2021/10/23 02:37:36;;;;;;;9.27;1.92;;;;;;;;;;4960446;28;20039;-58
2021/10/23 02:40:02;;;;;;;6.93;1.50;;;;;;;;;;4959010;28;20427;-59
2021/10/23 02:42:28;;;;;;;7.65;1.45;;;;;;;;;;4956430;28;20046;-57
2021/10/23 02:44:54;;;;;;;7.35;1.20;;;;;;;;;;4957626;28;20054;-58
2021/10/23 02:47:20;;;;;;;8.40;1.40;;;;;;;;;;4954332;28;20051;-59
2021/10/23 02:49:46;;;;;;;9.13;1.38;;;;;;;;;;4958155;28;20496;-58
2021/10/23 02:52:12;;;;;;;10.52;1.30;;;;;;;;;;4956409;28;20156;-59
2021/10/23 02:54:37;;;;;;;10.95;1.70;;;;;;;;;;4971606;28;20113;-61
2021/10/23 02:57:03;;;;;;;11.25;1.50;;;;;;;;;;4960102;28;20043;-59
2021/10/23 02:59:29;;;;;;;4.93;1.23;;;;;;;;;;4956422;28;20062;-56
2021/10/23 03:01:55;;;;;;;4.05;1.10;;;;;;;;;;4958143;28;20061;-58
2021/10/23 03:04:21;;;;;;;5.00;1.50;;;;;;;;;;4955091;28;20051;-58
2021/10/23 03:06:47;;;;;;;12.23;1.90;;;;;;;;;;4957584;28;20051;-54
2021/10/23 03:09:13;;;;;;;7.72;1.25;;;;;;;;;;4957096;28;20744;-58
2021/10/23 03:11:39;;;;;;;9.43;1.45;;;;;;;;;;4954982;28;20101;-57
2021/10/23 03:14:05;;;;;;;7.63;1.20;;;;;;;;;;4952662;28;20102;-56
2021/10/23 03:16:32;;;;;;;5.75;1.10;;;;;;;;;;4952857;28;20059;-56
2021/10/23 03:18:57;;;;;;;7.35;1.10;;;;;;;;;;4953444;28;20498;-58
2021/10/23 03:21:23;;;;;;;13.25;1.33;;;;;;;;;;4951868;28;20166;-56
2021/10/23 03:23:49;;;;;;;6.03;1.17;;;;;;;;;;4954210;28;20043;-56
2021/10/23 03:26:16;;;;;;;4.93;1.05;;;;;;;;;;4954599;28;20051;-55
2021/10/23 03:28:41;;;;;;;6.95;1.20;;;;;;;;;;4953100;28;20051;-59
2021/10/23 03:31:07;;;;;;;5.05;1.17;;;;;;;;;;4953289;28;20495;-60
2021/10/23 03:33:33;;;;;;;4.93;1.00;;;;;;;;;;4954858;28;20039;-59
2021/10/23 03:35:59;;;;;;;9.30;1.05;;;;;;;;;;4954626;28;20043;-57
2021/10/23 03:38:25;;;;;;;14.50;2.60;;;;;;;;;;4952897;28;20039;-58
2021/10/23 03:40:51;;;;;;;11.70;1.35;;;;;;;;;;4954050;28;20050;-57
2021/10/23 03:43:17;;;;;;;7.07;1.52;;;;;;;;;;4968739;28;20046;-60
2021/10/23 03:45:42;;;;;;;4.07;1.10;;;;;;;;;;4967778;28;20134;-61
2021/10/23 03:48:08;;;;;;;5.70;1.20;;;;;;;;;;4954402;28;20106;-59
2021/10/23 03:50:37;;;;;;;3.95;1.30;;;;;;;;;;4954581;28;20094;-58
2021/10/23 03:53:03;;;;;;;5.43;0.90;;;;;;;;;;4955212;28;21597;-57
2021/10/23 03:55:29;;;;;;;4.75;1.00;;;;;;;;;;4952133;28;20036;-59
2021/10/23 03:57:55;;;;;;;5.03;1.17;;;;;;;;;;4962278;28;20074;-58
2021/10/23 04:00:20;;;;;;;9.48;1.50;;;;;;;;;;4964875;28;20324;-55
2021/10/23 04:02:46;;;;;;;5.38;1.33;;;;;;;;;;4957677;28;20031;-59
2021/10/23 04:05:12;;;;;;;8.20;1.20;;;;;;;;;;4954356;28;20133;-59
2021/10/23 04:07:38;;;;;;;8.77;1.50;;;;;;;;;;4956745;28;20062;-58
2021/10/23 04:10:05;;;;;;;4.95;1.20;;;;;;;;;;4954729;28;20874;-58
2021/10/23 04:12:31;;;;;;;5.43;1.15;;;;;;;;;;4956177;28;20101;-60
2021/10/23 04:14:57;;;;;;;3.35;1.08;;;;;;;;;;4952737;28;20149;-57
2021/10/23 04:17:23;;;;;;;6.45;1.00;;;;;;;;;;4953771;28;20035;-58
2021/10/23 04:19:49;;;;;;;6.72;1.50;;;;;;;;;;4953533;28;20157;-58
2021/10/23 04:22:15;;;;;;;6.60;0.85;;;;;;;;;;4970141;28;20039;-57
2021/10/23 04:24:41;;;;;;;10.13;1.10;;;;;;;;;;4952653;28;20042;-58
2021/10/23 04:27:06;;;;;;;4.80;1.20;;;;;;;;;;4953214;28;20051;-60
2021/10/23 04:29:33;;;;;;;6.75;1.27;;;;;;;;;;4953747;28;20039;-55
2021/10/23 04:31:59;;;;;;;5.93;1.10;;;;;;;;;;4953482;28;20411;-59
2021/10/23 04:34:25;;;;;;;6.05;1.05;;;;;;;;;;4953647;28;20039;-59
2021/10/23 04:36:51;;;;;;;6.00;1.00;;;;;;;;;;4954074;28;20047;-60
2021/10/23 04:39:17;;;;;;;6.10;0.98;;;;;;;;;;4951504;28;20039;-59
2021/10/23 04:41:43;;;;;;;10.02;1.25;;;;;;;;;;4952669;28;20039;-59
2021/10/23 04:44:08;;;;;;;6.40;1.17;;;;;;;;;;4953279;28;20046;-59
2021/10/23 04:46:34;;;;;;;5.45;1.13;;;;;;;;;;4951982;28;20504;-59
2021/10/23 04:49:00;;;;;;;8.02;1.25;;;;;;;;;;4951931;28;20070;-59
2021/10/23 04:51:26;;;;;;;9.43;1.13;;;;;;;;;;4952840;28;20039;-59
2021/10/23 04:53:52;;;;;;;5.20;1.00;;;;;;;;;;4952727;28;20047;-57
2021/10/23 04:56:18;;;;;;;3.47;0.95;;;;;;;;;;4954412;28;20915;-59
2021/10/23 04:58:45;;;;;;;7.47;1.13;;;;;;;;;;4968183;28;20035;-59
2021/10/23 05:01:11;;;;;;;13.60;1.30;;;;;;;;;;4952284;28;20049;-61
2021/10/23 05:03:37;;;;;;;8.45;1.27;;;;;;;;;;4950232;28;20134;-60
2021/10/23 05:06:03;;;;;;;6.70;1.27;;;;;;;;;;4952109;28;20130;-59
2021/10/23 05:08:29;;;;;;;3.03;0.88;;;;;;;;;;4952143;28;20158;-57
2021/10/23 05:10:55;;;;;;;4.72;1.23;;;;;;;;;;4954253;28;20047;-58
2021/10/23 05:13:21;;;;;;;5.82;1.27;;;;;;;;;;4950592;28;20043;-58
2021/10/23 05:15:47;;;;;;;10.13;1.48;;;;;;;;;;4952464;28;20090;-57
2021/10/23 05:18:13;;;;;;;8.10;1.48;;;;;;;;;;4967324;28;20463;-59
2021/10/23 05:20:38;;;;;;;6.90;1.13;;;;;;;;;;4951490;28;20049;-59
2021/10/23 05:23:04;;;;;;;5.35;1.10;;;;;;;;;;4957693;28;20523;-59
2021/10/23 05:25:30;;;;;;;5.35;1.30;;;;;;;;;;4953484;28;20112;-57
2021/10/23 05:27:56;;;;;;;4.75;1.05;;;;;;;;;;4960326;28;20053;-55
2021/10/23 05:30:22;;;;;;;4.30;0.90;;;;;;;;;;4953671;28;20046;-58
2021/10/23 05:32:48;;;;;;;3.67;0.88;;;;;;;;;;4953053;28;20062;-57
2021/10/23 05:35:13;;;;;;;3.58;0.90;;;;;;;;;;4952139;28;20487;-58
2021/10/23 05:37:39;;;;;;;7.85;1.00;;;;;;;;;;4952075;28;20054;-58
2021/10/23 05:40:05;;;;;;;9.48;1.50;;;;;;;;;;4952070;28;20128;-56
2021/10/23 05:42:31;;;;;;;8.95;1.27;;;;;;;;;;4951019;28;20463;-58
2021/10/23 05:44:57;;;;;;;9.63;1.38;;;;;;;;;;4948630;28;20040;-58
2021/10/23 05:47:23;;;;;;;9.68;1.52;;;;;;;;;;4949957;28;20047;-58
2021/10/23 05:49:49;;;;;;;8.85;1.02;;;;;;;;;;4950525;28;20074;-58
2021/10/23 05:52:15;;;;;;;5.03;1.00;;;;;;;;;;4952859;28;20077;-60
2021/10/23 05:54:41;;;;;;;4.03;0.98;;;;;;;;;;4949160;28;20031;-56
2021/10/23 05:57:11;;;;;;;3.10;0.82;;;;;;;;;;4952851;28;20074;-57
2021/10/23 05:59:41;;;;;;;13.70;1.25;;;;;;;;;;4954682;28;20039;-59
2021/10/23 06:04:52;;;;;;;7.28;1.52;;;;;;;;;;4954198;28;20094;-58
2021/10/23 06:07:19;;;;;;;5.30;1.20;;;;;;;;;;4956228;28;20610;-59
2021/10/23 06:09:45;;;;;;;6.35;1.35;;;;;;;;;;4955895;28;20035;-59
2021/10/23 06:12:11;;;;;;;2.70;0.93;;;;;;;;;;4954904;28;20058;-55
2021/10/23 06:14:37;;;;;;;6.07;1.20;;;;;;;;;;4953048;28;20189;-60
2021/10/23 06:17:03;;;;;;;7.07;1.45;;;;;;;;;;4968760;28;20113;-59
2021/10/23 06:19:29;;;;;;;6.45;1.25;;;;;;;;;;4954142;28;20054;-58
2021/10/23 06:21:54;;;;;;;6.30;1.08;;;;;;;;;;4952978;28;20035;-59
2021/10/23 06:24:20;;;;;;;5.97;1.08;;;;;;;;;;4954062;28;20053;-58
2021/10/23 06:26:46;;;;;;;8.05;1.02;;;;;;;;;;4954683;28;20515;-59
2021/10/23 06:29:12;;;;;;;8.27;1.00;;;;;;;;;;4954453;28;20104;-58
2021/10/23 06:31:38;;;;;;;9.20;1.35;;;;;;;;;;4971278;28;20112;-58
2021/10/23 06:34:03;;;;;;;6.38;1.13;;;;;;;;;;4954237;28;20096;-57
2021/10/23 06:36:29;;;;;;;8.38;1.38;;;;;;;;;;4953446;28;20046;-59
2021/10/23 06:38:55;;;;;;;9.27;1.30;;;;;;;;;;4955527;28;20052;-60
2021/10/23 06:41:21;;;;;;;5.65;1.27;;;;;;;;;;4954038;28;20101;-59
2021/10/23 06:43:47;;;;;;;7.47;1.25;;;;;;;;;;4953203;28;20070;-59
2021/10/23 06:46:13;;;;;;;6.53;1.20;;;;;;;;;;4971620;28;20059;-59
2021/10/23 06:48:38;;;;;;;10.30;1.30;;;;;;;;;;4956379;28;20105;-59
2021/10/23 06:51:04;;;;;;;6.13;1.50;;;;;;;;;;4957722;28;20055;-58
2021/10/23 06:53:30;;;;;;;4.72;1.00;;;;;;;;;;4956612;28;20507;-60
2021/10/23 06:55:56;;;;;;;9.00;1.42;;;;;;;;;;4974369;28;20039;-58
2021/10/23 06:58:22;;;;;;;4.63;1.17;;;;;;;;;;4959632;28;20049;-59
2021/10/23 07:00:48;;;;;;;8.68;1.58;;;;;;;;;;4972511;28;20035;-58
2021/10/23 07:03:15;;;;;;;10.88;1.83;;;;;;;;;;4976130;28;20031;-59
2021/10/23 07:05:41;;;;;;;13.98;1.60;;;;;;;;;;4982197;28;20054;-58
2021/10/23 07:08:07;;;;;;;3.42;1.00;;;;;;;;;;4981068;28;20051;-59
2021/10/23 07:10:33;;;;;;;6.97;1.45;;;;;;;;;;4974164;28;20811;-59
2021/10/23 07:12:58;;;;;;;3.63;1.10;;;;;;;;;;4961922;28;20066;-56
2021/10/23 07:15:24;;;;;;;9.63;1.50;;;;;;;;;;4961249;28;20051;-58
2021/10/23 07:17:50;;;;;;;10.05;1.77;;;;;;;;;;4959458;28;20498;-58
2021/10/23 07:20:16;;;;;;;7.28;1.23;;;;;;;;;;4958263;28;20070;-58
2021/10/23 07:22:42;;;;;;;4.38;1.17;;;;;;;;;;4956286;28;20943;-58
2021/10/23 07:25:08;;;;;;;7.88;1.90;;;;;;;;;;4957515;28;20046;-60
2021/10/23 07:27:34;;;;;;;7.50;1.48;;;;;;;;;;4956615;28;20050;-58
2021/10/23 07:30:01;;;;;;;9.15;1.38;;;;;;;;;;4954726;28;20162;-56
2021/10/23 07:32:27;;;;;;;4.13;1.35;;;;;;;;;;4955415;28;20519;-58
2021/10/23 07:34:53;;;;;;;7.07;1.52;;;;;;;;;;4958086;28;20047;-56
2021/10/23 07:37:19;;;;;;;6.68;1.73;;;;;;;;;;4955507;28;20050;-60
2021/10/23 07:39:45;;;;;;;9.57;1.50;;;;;;;;;;4955994;28;20150;-60
2021/10/23 07:42:11;;;;;;;11.75;1.58;;;;;;;;;;4956103;28;20095;-58
2021/10/23 07:44:36;;;;;;;3.78;1.40;;;;;;;;;;4953632;28;20464;-57
2021/10/23 07:47:03;;;;;;;5.97;1.58;;;;;;;;;;4954607;28;20085;-58
2021/10/23 07:49:30;;;;;;;7.22;1.55;;;;;;;;;;4955795;28;20431;-59
2021/10/23 07:51:56;;;;;;;7.18;1.35;;;;;;;;;;4955496;28;20036;-56
2021/10/23 07:54:22;;;;;;;7.20;1.70;;;;;;;;;;4953317;28;20508;-56
2021/10/23 07:56:48;;;;;;;8.80;1.42;;;;;;;;;;4968436;28;20047;-58
2021/10/23 07:59:14;;;;;;;10.38;1.63;;;;;;;;;;4952844;28;20599;-58
2021/10/23 08:01:41;;;;;;;5.90;1.70;;;;;;;;;;4951452;28;20884;-58
2021/10/23 08:04:06;;;;;;;6.78;1.60;;;;;;;;;;4952475;28;20071;-58
2021/10/23 08:06:32;;;;;;;4.10;1.40;;;;;;;;;;4951885;28;20066;-56
2021/10/23 08:08:58;;;;;;;3.42;1.30;;;;;;;;;;4953436;28;20078;-58
2021/10/23 08:11:24;;;;;;;9.35;1.75;;;;;;;;;;4952594;28;20037;-56
2021/10/23 08:13:50;;;;;;;4.25;1.60;;;;;;;;;;4951657;28;20142;-59
2021/10/23 08:16:16;;;;;;;11.50;1.65;;;;;;;;;;4952988;28;20045;-58
2021/10/23 08:18:41;;;;;;;6.47;1.40;;;;;;;;;;4952128;28;20137;-57
2021/10/23 08:21:07;;;;;;;5.90;1.60;;;;;;;;;;4952669;28;20050;-57
2021/10/23 08:23:33;;;;;;;6.20;1.52;;;;;;;;;;4949510;28;20046;-55
2021/10/23 08:25:59;;;;;;;5.05;1.33;;;;;;;;;;4955581;28;20055;-57
2021/10/23 08:28:25;;;;;;;8.60;1.92;;;;;;;;;;4954409;28;20128;-57
2021/10/23 08:30:51;;;;;;;13.20;1.73;;;;;;;;;;4954515;28;20134;-57
2021/10/23 08:33:17;;;;;;;5.15;1.70;;;;;;;;;;4955636;28;20038;-58
2021/10/23 08:35:43;;;;;;;5.35;1.70;;;;;;;;;;4956545;28;20035;-56
2021/10/23 08:38:09;;;;;;;7.45;1.70;;;;;;;;;;4955100;28;20425;-57
2021/10/23 08:40:35;;;;;;;10.75;1.75;;;;;;;;;;4953252;28;20146;-58
2021/10/23 08:43:02;;;;;;;6.53;1.90;;;;;;;;;;4952128;28;20516;-57
2021/10/23 08:45:28;;;;;;;9.05;1.83;;;;;;;;;;4953146;28;20088;-55
2021/10/23 08:47:54;;;;;;;10.90;1.60;;;;;;;;;;4954815;28;20043;-57
2021/10/23 08:50:22;;;;;;;10.20;1.98;;;;;;;;;;4952134;28;20912;-57
2021/10/23 08:52:56;;;;;;;5.47;1.67;;;;;;;;;;4954720;28;20035;-57
2021/10/23 08:55:22;;;;;;;5.38;1.80;;;;;;;;;;4952581;28;20073;-55
2021/10/23 08:57:49;;;;;;;7.38;1.70;;;;;;;;;;4953644;28;20038;-56
2021/10/23 09:00:15;;;;;;;9.95;1.77;;;;;;;;;;4953394;28;20074;-54
2021/10/23 09:02:41;;;;;;;7.00;1.63;;;;;;;;;;4951332;28;20039;-57
2021/10/23 09:05:07;;;;;;;7.57;1.90;;;;;;;;;;4953004;28;20106;-57
2021/10/23 09:07:33;;;;;;;8.35;1.77;;;;;;;;;;4951700;28;20039;-53
2021/10/23 09:10:01;;;;;;;6.47;2.28;;;;;;;;;;4951750;28;20049;-58
2021/10/23 09:12:28;;;;;;;4.95;2.05;;;;;;;;;;4951059;28;20380;-55
2021/10/23 09:15:11;;;;;;;6.97;1.90;;;;;;;;;;4952365;28;20062;-57
2021/10/23 09:17:42;;;;;;;4.90;1.88;;;;;;;;;;4950846;28;20051;-56
2021/10/23 09:20:09;;;;;;;6.63;1.80;;;;;;;;;;4951869;28;20039;-54
2021/10/23 09:22:35;;;;;;;9.68;1.85;;;;;;;;;;4951318;28;20047;-56
2021/10/23 09:25:13;;;;;;;5.57;1.92;;;;;;;;;;4952429;28;20112;-57
2021/10/23 09:27:53;;;;;;;7.82;2.22;;;;;;;;;;4950443;28;20054;-55
2021/10/23 09:30:21;;;;;;;7.40;2.38;;;;;;;;;;4950721;28;20043;-57
2021/10/23 09:32:54;;;;;;;12.27;2.45;;;;;;;;;;4950536;28;20090;-54
2021/10/23 09:35:22;;;;;;;7.90;2.17;;;;;;;;;;4950266;28;20062;-55
2021/10/23 09:37:49;;;;;;;6.15;1.98;;;;;;;;;;4950674;28;20046;-56
2021/10/23 09:40:18;;;;;;;6.80;2.15;;;;;;;;;;4950210;28;20046;-55
2021/10/23 09:42:44;;;;;;;5.03;1.90;;;;;;;;;;4949573;28;20042;-56
2021/10/23 09:45:11;;;;;;;5.97;2.28;;;;;;;;;;4950133;28;20039;-57
2021/10/23 09:47:45;;;;;;;5.55;2.17;;;;;;;;;;4948862;28;20055;-58
2021/10/23 09:50:21;;;;;;;7.40;2.05;;;;;;;;;;4951126;28;20047;-53
2021/10/23 09:52:53;;;;;;;3.50;1.70;;;;;;;;;;4950683;28;20039;-54
2021/10/23 09:55:18;;;;;;;11.10;2.35;;;;;;;;;;4949152;28;20043;-55
2021/10/23 09:57:44;;;;;;;8.23;1.85;;;;;;;;;;4950465;28;20042;-57
2021/10/23 10:00:11;;;;;;;7.82;2.25;;;;;;;;;;4950514;28;20475;-53
2021/10/23 10:02:39;;;;;;;6.50;2.60;;;;;;;;;;4950056;28;20087;-57
2021/10/23 10:05:05;;;;;;;7.80;2.05;;;;;;;;;;4967388;28;20045;-56
2021/10/23 10:07:32;;;;;;;6.97;2.22;;;;;;;;;;4950809;28;20210;-54
2021/10/23 10:09:58;;;;;;;4.90;2.17;;;;;;;;;;4952072;28;20045;-56
2021/10/23 10:12:24;;;;;;;7.03;2.47;;;;;;;;;;4950606;28;20783;-57
2021/10/23 10:14:50;;;;;;;11.25;1.88;;;;;;;;;;4952267;28;20051;-58
2021/10/23 10:17:16;;;;;;;5.63;2.10;;;;;;;;;;4954039;28;20118;-57
2021/10/23 10:19:42;;;;;;;6.50;2.00;;;;;;;;;;4950872;28;20043;-55
2021/10/23 10:22:08;;;;;;;7.28;2.10;;;;;;;;;;4950545;28;20043;-53
2021/10/23 10:24:38;;;;;;;3.70;1.80;;;;;;;;;;4950979;28;20917;-53
2021/10/23 10:27:06;;;;;;;5.00;1.98;;;;;;;;;;4953428;28;20069;-56
2021/10/23 10:29:55;;;;;;;5.40;1.80;;;;;;;;;;4951003;28;20086;-56
2021/10/23 10:32:30;;;;;;;6.20;2.08;;;;;;;;;;4948943;28;20039;-56
2021/10/23 10:35:09;;;;;;;6.18;2.10;;;;;;;;;;4950442;28;20047;-58
2021/10/23 10:37:52;;;;;;;6.85;2.20;;;;;;;;;;4951153;28;20047;-58
2021/10/23 10:42:53;;;;;;;5.38;1.52;;;;;;;;;;4950956;28;20114;-56
2021/10/23 10:45:22;;;;;;;4.50;1.52;;;;;;;;;;4953327;28;20082;-56
2021/10/23 10:48:06;;;;;;;14.05;2.30;;;;;;;;;;4957376;28;20065;-58
2021/10/23 10:50:36;;;;;;;8.43;1.83;;;;;;;;;;4953875;28;20535;-57
2021/10/23 10:53:14;;;;;;;4.10;1.27;;;;;;;;;;4953519;28;20050;-56
2021/10/23 10:55:41;;;;;;;5.60;1.73;;;;;;;;;;4953966;28;20043;-55
2021/10/23 10:58:11;;;;;;;7.13;1.75;;;;;;;;;;4953596;28;20086;-56
2021/10/23 11:00:46;;;;;;;8.13;2.20;;;;;;;;;;4953464;28;20046;-55
2021/10/23 11:03:31;;;;;;;11.65;2.13;;;;;;;;;;4955882;28;20043;-53
2021/10/23 11:05:58;;;;;;;6.72;2.00;;;;;;;;;;4955025;28;20054;-56
2021/10/23 11:08:24;;;;;;;7.63;1.95;;;;;;;;;;4971149;28;20591;-56
2021/10/23 11:10:53;;;;;;;9.27;2.28;;;;;;;;;;4956831;28;20113;-56
2021/10/23 11:13:22;;;;;;;6.75;1.73;;;;;;;;;;4953698;28;20460;-56
2021/10/23 11:15:48;;;;;;;6.47;2.20;;;;;;;;;;4953912;28;20050;-57
2021/10/23 11:18:16;;;;;;;7.43;2.40;;;;;;;;;;4955186;28;20039;-57
2021/10/23 11:20:43;;;;;;;8.05;2.45;;;;;;;;;;4954106;28;20049;-53
2021/10/23 11:23:08;;;;;;;5.40;2.15;;;;;;;;;;4955434;28;20046;-55
2021/10/23 11:25:37;;;;;;;5.25;2.08;;;;;;;;;;4957131;28;20498;-51
2021/10/23 11:28:09;;;;;;;7.65;2.63;;;;;;;;;;4958085;28;20043;-52
2021/10/23 11:30:40;;;;;;;8.70;2.55;;;;;;;;;;4955214;28;20035;-57
2021/10/23 11:33:09;;;;;;;5.60;2.15;;;;;;;;;;4955924;28;20035;-56
2021/10/23 11:35:35;;;;;;;6.82;2.08;;;;;;;;;;4954827;28;20514;-56
2021/10/23 11:38:22;;;;;;;8.93;2.25;;;;;;;;;;4949965;28;20674;-55
2021/10/23 11:40:52;;;;;;;7.55;2.65;;;;;;;;;;4949054;28;20043;-57
2021/10/23 11:43:19;;;;;;;4.03;1.67;;;;;;;;;;4948959;28;20109;-58
2021/10/23 11:45:45;;;;;;;9.50;1.50;;;;;;;;;;4950373;28;20034;-57
2021/10/23 11:48:12;;;;;;;9.93;2.78;;;;;;;;;;4949553;28;21029;-56
2021/10/23 11:50:58;;;;;;;10.32;2.25;;;;;;;;;;4951427;28;20051;-56
2021/10/23 11:53:25;;;;;;;8.55;2.33;;;;;;;;;;4949302;28;20481;-57
2021/10/23 11:55:55;;;;;;;7.57;2.85;;;;;;;;;;4949211;28;20204;-57
2021/10/23 11:58:25;;;;;;;3.45;1.52;;;;;;;;;;4949964;28;20054;-57
2021/10/23 12:00:58;;;;;;;3.75;1.90;;;;;;;;;;4950946;28;20535;-58
2021/10/23 12:03:36;;;;;;;6.10;2.70;;;;;;;;;;4949678;28;20043;-58
2021/10/23 12:06:20;;;;;;;5.65;2.13;;;;;;;;;;4951167;28;20050;-58
2021/10/23 12:08:52;;;;;;;4.53;2.30;;;;;;;;;;4948577;28;20057;-58
2021/10/23 12:11:19;;;;;;;10.48;2.65;;;;;;;;;;4950472;28;20051;-58
2021/10/23 12:13:45;;;;;;;10.88;3.00;;;;;;;;;;4950250;28;20046;-58
2021/10/23 12:16:11;;;;;;;5.82;2.83;;;;;;;;;;4952983;28;20122;-57
2021/10/23 12:18:38;;;;;;;6.97;2.78;;;;;;;;;;4953789;28;20043;-58
2021/10/23 12:21:20;;;;;;;10.40;2.78;;;;;;;;;;4956311;28;20099;-57
2021/10/23 12:23:51;;;;;;;10.40;3.00;;;;;;;;;;4954647;28;20050;-54
2021/10/23 12:26:17;;;;;;;13.52;2.55;;;;;;;;;;4954663;28;20085;-57
2021/10/23 12:29:02;;;;;;;6.57;2.33;;;;;;;;;;4956866;28;20030;-57
2021/10/23 12:31:48;;;;;;;7.60;3.10;;;;;;;;;;4946189;28;20053;-55
2021/10/23 12:34:14;;;;;;;9.48;2.97;;;;;;;;;;4937086;28;20046;-57
2021/10/23 12:36:50;;;;;;;6.32;2.95;;;;;;;;;;4955098;28;20039;-56
2021/10/23 12:39:17;;;;;;;5.90;2.60;;;;;;;;;;4954641;28;20146;-57
2021/10/23 12:41:43;;;;;;;6.72;3.17;;;;;;;;;;4956504;28;20578;-55
2021/10/23 12:44:11;;;;;;;9.02;3.17;;;;;;;;;;4958896;28;20104;-56
2021/10/23 12:46:37;;;;;;;7.25;3.00;;;;;;;;;;4957325;28;20058;-58
2021/10/23 12:49:03;;;;;;;6.82;3.58;;;;;;;;;;4959598;28;20035;-52
2021/10/23 12:51:31;;;;;;;6.97;3.00;;;;;;;;;;4963641;28;20263;-52
2021/10/23 12:53:58;;;;;;;7.10;3.38;;;;;;;;;;4961896;28;20043;-58
2021/10/23 12:56:24;;;;;;;7.05;3.50;;;;;;;;;;4960034;28;20135;-53
2021/10/23 12:58:50;;;;;;;6.25;3.17;;;;;;;;;;4954980;28;20150;-55
2021/10/23 13:01:16;;;;;;;6.93;3.17;;;;;;;;;;4959266;28;20065;-58
2021/10/23 13:03:42;;;;;;;8.52;2.70;;;;;;;;;;4957444;28;20439;-54
2021/10/23 13:06:08;;;;;;;7.97;3.80;;;;;;;;;;4956900;28;20059;-56
2021/10/23 13:08:34;;;;;;;7.28;3.15;;;;;;;;;;4954446;28;20571;-58
2021/10/23 13:11:00;;;;;;;6.28;2.85;;;;;;;;;;4954528;28;20035;-57
2021/10/23 13:13:26;;;;;;;8.20;3.47;;;;;;;;;;4950121;28;20150;-57
2021/10/23 13:15:52;;;;;;;5.55;3.47;;;;;;;;;;4953059;28;20181;-59
2021/10/23 13:18:18;;;;;;;7.43;3.78;;;;;;;;;;4950652;28;20586;-58
2021/10/23 13:20:44;;;;;;;7.50;3.47;;;;;;;;;;4952581;28;20058;-57
2021/10/23 13:23:10;;;;;;;6.28;2.92;;;;;;;;;;4951595;28;20043;-56
2021/10/23 13:25:36;;;;;;;6.65;3.85;;;;;;;;;;4951124;28;20037;-55
2021/10/23 13:28:02;;;;;;;7.38;3.67;;;;;;;;;;4951258;28;20043;-57
2021/10/23 13:30:28;;;;;;;8.38;2.92;;;;;;;;;;4967728;28;20046;-57
2021/10/23 13:32:54;;;;;;;4.93;3.20;;;;;;;;;;4950508;28;20046;-57
2021/10/23 13:35:22;;;;;;;6.75;3.78;;;;;;;;;;4951974;28;20034;-58
2021/10/23 13:37:48;;;;;;;6.22;3.20;;;;;;;;;;4952516;28;20038;-58
2021/10/23 13:40:14;;;;;;;7.72;4.10;;;;;;;;;;4952764;28;20111;-57
2021/10/23 13:42:40;;;;;;;7.80;4.03;;;;;;;;;;4951316;28;20779;-58
2021/10/23 13:45:06;;;;;;;8.65;3.80;;;;;;;;;;4951978;28;20050;-58
2021/10/23 13:47:32;;;;;;;9.15;4.65;;;;;;;;;;4953226;28;20788;-57
2021/10/23 13:49:58;;;;;;;5.47;3.13;;;;;;;;;;4967459;28;20031;-58
2021/10/23 13:52:25;;;;;;;6.25;3.20;;;;;;;;;;4951537;28;20035;-57
2021/10/23 13:54:51;;;;;;;5.65;3.47;;;;;;;;;;4952415;28;20213;-57
2021/10/23 13:57:17;;;;;;;6.72;3.85;;;;;;;;;;4951873;28;20036;-55
2021/10/23 13:59:43;;;;;;;5.90;3.67;;;;;;;;;;4950545;28;20704;-57
2021/10/23 14:02:09;;;;;;;7.07;4.05;;;;;;;;;;4952525;28;20039;-58
2021/10/23 14:04:35;;;;;;;6.65;3.85;;;;;;;;;;4951753;28;20146;-57
2021/10/23 14:07:03;;;;;;;5.50;3.58;;;;;;;;;;4953318;28;20067;-57
2021/10/23 14:09:29;;;;;;;6.85;3.92;;;;;;;;;;4952219;28;20038;-57
2021/10/23 14:11:55;;;;;;;7.10;4.38;;;;;;;;;;4952387;28;20047;-58
2021/10/23 14:14:21;;;;;;;6.95;4.10;;;;;;;;;;4950543;28;20128;-57
2021/10/23 14:16:47;;;;;;;4.93;2.95;;;;;;;;;;4952603;28;20039;-55
2021/10/23 14:19:12;;;;;;;9.05;4.20;;;;;;;;;;4954664;28;20109;-55
2021/10/23 14:21:38;;;;;;;6.50;4.00;;;;;;;;;;4956889;28;20153;-58
2021/10/23 14:24:05;;;;;;;6.88;3.35;;;;;;;;;;4956087;28;20102;-56
2021/10/23 14:26:33;;;;;;;8.02;4.05;;;;;;;;;;4955295;28;20054;-56
2021/10/23 14:28:59;;;;;;;6.50;4.03;;;;;;;;;;4970525;28;20148;-57
2021/10/23 14:31:26;;;;;;;9.38;4.22;;;;;;;;;;4954786;28;20042;-59
2021/10/23 14:33:52;;;;;;;7.22;3.92;;;;;;;;;;4955827;28;20042;-57
2021/10/23 14:36:18;;;;;;;7.57;4.18;;;;;;;;;;4956897;28;20082;-57
2021/10/23 14:38:44;;;;;;;8.65;3.90;;;;;;;;;;4953421;28;20039;-58
2021/10/23 14:41:11;;;;;;;6.43;3.97;;;;;;;;;;4956648;28;20039;-55
2021/10/23 14:43:39;;;;;;;7.22;3.63;;;;;;;;;;4955069;28;20133;-57
2021/10/23 14:46:04;;;;;;;4.55;2.05;;;;;;;;;;4955585;28;20051;-56